Hilda Lab — WKDT — position and weather

sailwx.info

Track history (hours):
 
Tides and Currents Weather Stations Pressure Air Temp Water Temp Dewpoint Dewpoint Depression Visibility Wind Speed Wind Dir Waves Ship Positions

Hilda Lab

Owner: LABORDE MARINE SERVICES LLC, MORGAN CITY, LA. More information available from US FCC via Universal Licensing System and Coast Guard Vessel Documentation Center.

Last reported at 2018-Jan-10 17:02 UTC. Time now 2018-Feb-19 14:14 UTC.
Position N 27°43' W 090°22'.
Warning: this ship's position is 39 days out of date.

Length 87 m; draft 4 m.

Type: . MMSI: 338536000.

Date/timePositionNaut miles runAvg speedWind from/ knotsBaromVisibWave heightAir tempDewpointWater temp
2018-Jan-10 17:02N 27°43' W 090°22'311.2
2018-Jan-10 16:44N 27°40' W 090°22'311.2
2018-Jan-10 16:28N 27°37' W 090°22'511.2
2018-Jan-10 16:00N 27°32' W 090°23'611.1
2018-Jan-10 15:29N 27°26' W 090°23'911.7
2018-Jan-10 14:45N 27°17' W 090°24'312.1
2018-Jan-10 14:30N 27°15' W 090°25'1812.3
2018-Jan-10 13:01N 26°57' W 090°27'112.4
2018-Jan-10 12:58N 26°56' W 090°27'  
2018-Jan-03 14:28N 27°37' W 090°23'5 9.9
2018-Jan-03 13:57N 27°32' W 090°24'4 9.6
2018-Jan-03 13:31N 27°28' W 090°25'5 9.5
2018-Jan-03 13:00N 27°23' W 090°25'4 8.9
2018-Jan-03 12:30N 27°19' W 090°26'5 9.1
2018-Jan-03 11:59N 27°14' W 090°27'5 9.3
2018-Jan-03 11:29N 27°10' W 090°28'4 9.1
2018-Jan-03 11:00N 27°05' W 090°28'5 9.5
2018-Jan-03 10:29N 27°01' W 090°28'5 9.8
2018-Jan-03 10:00N 26°56' W 090°29'510.2
2018-Jan-03 09:29N 26°51' W 090°30'10 0.4
2018-Jan-02 09:10N 27°01' W 090°31'7 9.9
2018-Jan-02 08:29N 27°08' W 090°31'510.1
2018-Jan-02 07:58N 27°13' W 090°30'510.1
2018-Jan-02 07:30N 27°18' W 090°30'510.2
2018-Jan-02 06:59N 27°23' W 090°30'510.1
2018-Jan-02 06:29N 27°28' W 090°29'510.5
2018-Jan-02 06:00N 27°33' W 090°29'510.6
2018-Jan-02 05:30N 27°38' W 090°28'  
Track history (hours):
 
Tides and Currents Weather Stations Pressure Air Temp Water Temp Dewpoint Dewpoint Depression Visibility Wind Speed Wind Dir Waves Ship Positions

Hilda Lab

Owner: LABORDE MARINE SERVICES LLC, MORGAN CITY, LA. More information available from US FCC via Universal Licensing System and Coast Guard Vessel Documentation Center.

Last reported at 2018-Jan-10 17:02 UTC. Time now 2018-Feb-19 14:14 UTC.
Position N 27°43' W 090°22'.
Warning: this ship's position is 39 days out of date.

Length 87 m; draft 4 m.

Type: . MMSI: 338536000.

Date/timePositionNaut miles runAvg speedWind from/ knotsBaromVisibWave heightAir tempDewpointWater temp
2018-Jan-10 17:02N 27°43' W 090°22'311.2
2018-Jan-10 16:44N 27°40' W 090°22'311.2
2018-Jan-10 16:28N 27°37' W 090°22'511.2
2018-Jan-10 16:00N 27°32' W 090°23'611.1
2018-Jan-10 15:29N 27°26' W 090°23'911.7
2018-Jan-10 14:45N 27°17' W 090°24'312.1
2018-Jan-10 14:30N 27°15' W 090°25'1812.3
2018-Jan-10 13:01N 26°57' W 090°27'112.4
2018-Jan-10 12:58N 26°56' W 090°27'  
2018-Jan-03 14:28N 27°37' W 090°23'5 9.9
2018-Jan-03 13:57N 27°32' W 090°24'4 9.6
2018-Jan-03 13:31N 27°28' W 090°25'5 9.5
2018-Jan-03 13:00N 27°23' W 090°25'4 8.9
2018-Jan-03 12:30N 27°19' W 090°26'5 9.1
2018-Jan-03 11:59N 27°14' W 090°27'5 9.3
2018-Jan-03 11:29N 27°10' W 090°28'4 9.1
2018-Jan-03 11:00N 27°05' W 090°28'5 9.5
2018-Jan-03 10:29N 27°01' W 090°28'5 9.8
2018-Jan-03 10:00N 26°56' W 090°29'510.2
2018-Jan-03 09:29N 26°51' W 090°30'10 0.4
2018-Jan-02 09:10N 27°01' W 090°31'7 9.9
2018-Jan-02 08:29N 27°08' W 090°31'510.1
2018-Jan-02 07:58N 27°13' W 090°30'510.1
2018-Jan-02 07:30N 27°18' W 090°30'510.2
2018-Jan-02 06:59N 27°23' W 090°30'510.1
2018-Jan-02 06:29N 27°28' W 090°29'510.5
2018-Jan-02 06:00N 27°33' W 090°29'510.6
2018-Jan-02 05:30N 27°38' W 090°28'  

Dump ship's entire track history